Time;durP1;ratioP1;P1;durP2;ratioP2;P2;SDS_P1;SDS_P2;PMS_P1;PMS_P2;Temp;Humidity;BMP_temperature;BMP_pressure;BME280_temperature;BME280_humidity;BME280_pressure;Samples;Min_cycle;Max_cycle;Signal;HPM_P1;HPM_P2
2023/04/04 00:00:15;;;;;;;3.03;2.77;;;;;;;1.32;100.00;96931.00;5028823;28;105195;-63
2023/04/04 00:02:42;;;;;;;3.47;2.97;;;;;;;1.19;100.00;96930.00;5026959;28;103748;-63
2023/04/04 00:05:09;;;;;;;2.93;2.67;;;;;;;1.32;100.00;96935.44;5032024;28;101943;-63
2023/04/04 00:07:37;;;;;;;4.17;2.70;;;;;;;1.21;100.00;96920.97;5029821;28;105288;-63
2023/04/04 00:10:05;;;;;;;3.90;3.00;;;;;;;1.15;100.00;96928.75;5012875;28;105394;-63
2023/04/04 00:12:32;;;;;;;3.17;2.83;;;;;;;1.09;100.00;96932.09;5016480;28;101867;-63
2023/04/04 00:15:06;;;;;;;3.03;2.73;;;;;;;1.10;100.00;96926.66;5011070;28;105175;-63
2023/04/04 00:17:33;;;;;;;7.23;3.63;;;;;;;1.15;100.00;96924.31;5012805;28;102082;-63
2023/04/04 00:20:00;;;;;;;4.60;2.70;;;;;;;1.07;100.00;96931.44;5010877;28;105046;-63
2023/04/04 00:22:27;;;;;;;3.90;2.80;;;;;;;1.09;100.00;96925.03;5011068;28;105388;-63
2023/04/04 00:25:30;;;;;;;3.77;3.03;;;;;;;1.04;100.00;96922.13;5026002;28;101827;-63
2023/04/04 00:27:59;;;;;;;3.10;2.80;;;;;;;0.94;100.00;96921.56;5031248;28;104802;-63
2023/04/04 00:30:26;;;;;;;3.10;2.77;;;;;;;1.08;100.00;96918.16;5031117;28;105394;-63
2023/04/04 00:37:06;;;;;;;4.27;2.97;;;;;;;0.91;100.00;96915.88;5021064;28;102049;-63
2023/04/04 00:39:33;;;;;;;3.50;2.57;;;;;;;1.06;100.00;96912.31;5011557;28;101803;-63
2023/04/04 00:42:02;;;;;;;3.73;2.93;;;;;;;1.00;100.00;96909.56;5011459;28;105246;-63
2023/04/04 00:44:57;;;;;;;3.30;2.70;;;;;;;0.87;100.00;96904.13;5010601;28;104906;-63
2023/04/04 00:47:29;;;;;;;3.17;2.87;;;;;;;0.89;100.00;96902.16;5028031;28;101945;-63
2023/04/04 00:49:56;;;;;;;3.50;2.73;;;;;;;0.90;100.00;96898.53;5030660;28;104771;-63
2023/04/04 00:52:23;;;;;;;3.10;2.80;;;;;;;0.75;100.00;96898.50;5015151;28;102889;-63
2023/04/04 00:55:19;;;;;;;3.70;2.90;;;;;;;0.68;100.00;96900.22;5011331;28;101960;-63
2023/04/04 00:57:48;;;;;;;3.27;2.80;;;;;;;0.66;100.00;96891.72;5011155;28;103923;-63
2023/04/04 01:00:16;;;;;;;3.20;2.70;;;;;;;0.72;100.00;96888.38;5033985;28;105274;-63
2023/04/04 01:02:43;;;;;;;6.00;2.90;;;;;;;0.67;100.00;96893.34;5030884;28;104842;-63
2023/04/04 01:05:11;;;;;;;3.50;3.00;;;;;;;0.64;100.00;96890.25;5015083;28;105352;-63
2023/04/04 01:07:40;;;;;;;3.17;2.70;;;;;;;0.64;100.00;96893.72;5029550;28;101956;-63
2023/04/04 01:10:08;;;;;;;2.87;2.53;;;;;;;0.64;100.00;96895.50;5030463;28;105509;-63
2023/04/04 01:12:36;;;;;;;3.33;2.43;;;;;;;0.55;100.00;96883.50;5030135;28;105001;-63
2023/04/04 01:15:09;;;;;;;4.07;3.00;;;;;;;0.51;100.00;96882.22;5030917;28;101870;-63
2023/04/04 01:17:36;;;;;;;3.70;3.10;;;;;;;0.52;100.00;96878.59;5007486;28;105306;-63
2023/04/04 01:20:07;;;;;;;3.90;2.87;;;;;;;0.39;100.00;96878.38;5027914;28;103736;-63
2023/04/04 01:22:43;;;;;;;3.03;2.63;;;;;;;0.41;100.00;96876.41;5034189;28;101801;-63
2023/04/04 01:25:12;;;;;;;3.67;2.83;;;;;;;0.35;100.00;96869.25;5014273;28;105433;-63
2023/04/04 01:27:43;;;;;;;3.90;2.60;;;;;;;0.33;100.00;96874.66;5010509;28;102029;-63
2023/04/04 01:30:16;;;;;;;3.43;2.70;;;;;;;0.26;100.00;96878.13;5025494;28;104994;-63
2023/04/04 01:32:58;;;;;;;4.53;2.87;;;;;;;0.29;100.00;96867.34;5024780;28;105397;-63
2023/04/04 01:35:31;;;;;;;3.87;2.60;;;;;;;0.14;100.00;96866.47;5029151;28;101936;-63
2023/04/04 01:38:08;;;;;;;3.90;2.93;;;;;;;0.15;100.00;96866.31;5025967;28;104087;-63
2023/04/04 01:40:36;;;;;;;3.57;2.97;;;;;;;0.12;100.00;96866.63;5009815;28;105814;-63
2023/04/04 01:43:21;;;;;;;2.80;2.57;;;;;;;0.03;100.00;96867.69;5010219;28;101896;-63
2023/04/04 01:45:49;;;;;;;7.17;2.73;;;;;;;0.07;100.00;96860.31;5016401;28;103825;-63
2023/04/04 01:48:16;;;;;;;2.73;2.37;;;;;;;-0.01;100.00;96855.97;5026511;28;101966;-63
2023/04/04 01:50:47;;;;;;;3.97;3.23;;;;;;;-0.04;100.00;96855.50;5010340;28;105814;-63
2023/04/04 01:53:22;;;;;;;3.30;2.60;;;;;;;-0.07;100.00;96855.81;5010781;28;102582;-63
2023/04/04 01:55:49;;;;;;;3.33;2.60;;;;;;;-0.10;100.00;96861.41;5010026;28;101963;-63
2023/04/04 01:58:17;;;;;;;3.70;2.50;;;;;;;-0.07;100.00;96856.66;5010017;28;105452;-63
2023/04/04 02:00:45;;;;;;;2.60;2.40;;;;;;;-0.11;100.00;96860.59;5026287;28;105681;-63
2023/04/04 02:03:47;;;;;;;4.07;2.60;;;;;;;-0.14;100.00;96860.13;5027161;28;101800;-63
2023/04/04 02:06:14;;;;;;;3.40;2.70;;;;;;;-0.17;100.00;96858.66;5012634;28;105595;-63
2023/04/04 02:08:41;;;;;;;7.20;2.77;;;;;;;-0.21;100.00;96857.38;5009930;28;101957;-63
2023/04/04 02:11:09;;;;;;;3.30;2.70;;;;;;;-0.20;100.00;96851.16;5012240;28;105031;-63
2023/04/04 02:13:51;;;;;;;5.50;3.13;;;;;;;-0.25;100.00;96847.44;5018897;28;105073;-63
2023/04/04 02:16:20;;;;;;;4.90;2.70;;;;;;;-0.28;100.00;96847.00;5010033;28;101761;-63
2023/04/04 02:18:47;;;;;;;3.00;2.60;;;;;;;-0.30;100.00;96849.75;5009894;28;105389;-63
2023/04/04 02:21:14;;;;;;;3.53;2.67;;;;;;;-0.28;100.00;96846.00;5008930;28;105209;-63
2023/04/04 02:24:15;;;;;;;4.57;2.90;;;;;;;-0.23;100.00;96845.47;5009745;28;101876;-63
2023/04/04 02:26:42;;;;;;;5.67;2.63;;;;;;;-0.29;100.00;96840.94;5027302;28;105046;-63
2023/04/04 02:29:09;;;;;;;3.77;2.30;;;;;;;-0.46;100.00;96839.41;5032267;28;105070;-63
2023/04/04 02:31:37;;;;;;;5.03;3.30;;;;;;;-0.43;100.00;96844.28;5023410;28;104797;-63
2023/04/04 02:34:23;;;;;;;3.60;2.73;;;;;;;-0.47;100.00;96837.78;5009161;28;105146;-63
2023/04/04 02:36:52;;;;;;;2.97;2.50;;;;;;;-0.46;100.00;96839.41;4989506;28;102073;-63
2023/04/04 02:39:21;;;;;;;5.80;2.90;;;;;;;-0.50;100.00;96838.09;4989634;28;105566;-63
2023/04/04 02:41:50;;;;;;;4.37;2.90;;;;;;;-0.47;100.00;96835.97;5028516;28;105960;-63
2023/04/04 02:44:17;;;;;;;3.77;2.90;;;;;;;-0.57;100.00;96839.78;5063629;27;102295;-63
2023/04/04 02:46:45;;;;;;;3.00;2.70;;;;;;;-0.55;100.00;96837.00;5011082;28;105293;-63
2023/04/04 02:49:14;;;;;;;4.80;2.80;;;;;;;-0.62;100.00;96836.88;5008759;28;105881;-63
2023/04/04 02:51:46;;;;;;;3.30;2.70;;;;;;;-0.58;100.00;96835.56;5031958;28;102156;-63
2023/04/04 02:54:19;;;;;;;3.20;2.90;;;;;;;-0.63;100.00;96837.84;5028779;28;105570;-63
2023/04/04 02:56:47;;;;;;;4.63;3.13;;;;;;;-0.54;100.00;96838.63;5043882;27;102076;-63
2023/04/04 02:59:14;;;;;;;6.67;3.10;;;;;;;-0.64;100.00;96838.84;5012016;28;104787;-63
2023/04/04 03:01:41;;;;;;;3.47;3.07;;;;;;;-0.64;100.00;96836.25;5028105;28;105063;-63
2023/04/04 03:04:19;;;;;;;3.50;2.83;;;;;;;-0.65;100.00;96839.84;5027785;28;101981;-63
2023/04/04 03:06:47;;;;;;;4.77;2.77;;;;;;;-0.64;100.00;96835.41;5009205;28;105255;-63
2023/04/04 03:09:15;;;;;;;3.73;2.80;;;;;;;-0.70;100.00;96839.53;5008333;28;104069;-63
2023/04/04 03:11:41;;;;;;;3.67;3.00;;;;;;;-0.76;100.00;96845.44;5016157;28;103258;-63
2023/04/04 03:17:57;;;;;;;2.83;2.60;;;;;;;-0.77;100.00;96841.16;5007409;28;101790;-63
2023/04/04 03:20:28;;;;;;;3.63;2.80;;;;;;;-0.75;100.00;96843.63;5008951;28;103593;-63
2023/04/04 03:23:06;;;;;;;6.00;2.93;;;;;;;-0.80;100.00;96846.75;5027067;28;103059;-63
2023/04/04 03:25:33;;;;;;;3.40;3.07;;;;;;;-0.85;100.00;96843.00;5029129;28;101822;-63
2023/04/04 03:28:08;;;;;;;4.10;3.00;;;;;;;-0.89;100.00;96839.91;5027347;28;105741;-63
2023/04/04 03:30:35;;;;;;;5.70;3.17;;;;;;;-0.91;100.00;96841.91;5028423;28;105101;-63
2023/04/04 03:33:07;;;;;;;5.53;2.73;;;;;;;-0.91;100.00;96843.69;5022969;28;101995;-63
2023/04/04 03:35:37;;;;;;;3.43;3.10;;;;;;;-0.95;100.00;96844.97;5028938;28;104900;-63
2023/04/04 03:38:04;;;;;;;3.00;2.70;;;;;;;-0.90;100.00;96846.13;5012127;28;105760;-63
2023/04/04 03:40:31;;;;;;;4.10;3.27;;;;;;;-0.91;100.00;96851.50;5008772;28;103506;-63
2023/04/04 03:43:07;;;;;;;4.13;3.20;;;;;;;-0.97;100.00;96849.56;5009229;28;105306;-63
2023/04/04 03:45:35;;;;;;;5.43;3.10;;;;;;;-0.98;100.00;96846.16;5008786;28;102033;-63
2023/04/04 03:48:03;;;;;;;4.63;2.73;;;;;;;-1.02;100.00;96852.69;5008565;28;105000;-63
2023/04/04 03:50:31;;;;;;;3.83;3.03;;;;;;;-1.01;100.00;96848.28;5008130;28;105096;-63
2023/04/04 03:53:24;;;;;;;4.07;2.77;;;;;;;-1.04;100.00;96852.03;5012006;28;101939;-63
2023/04/04 03:55:51;;;;;;;5.97;3.33;;;;;;;-1.00;100.00;96850.72;5008686;28;105295;-63
2023/04/04 03:58:18;;;;;;;5.40;2.90;;;;;;;-1.03;100.00;96850.25;5007920;28;105015;-63
2023/04/04 04:00:45;;;;;;;5.53;3.43;;;;;;;-1.01;100.00;96856.09;5013484;28;101822;-63
2023/04/04 04:03:45;;;;;;;4.87;3.70;;;;;;;-0.93;100.00;96853.47;5026059;28;105065;-63
2023/04/04 04:06:12;;;;;;;4.07;3.50;;;;;;;-1.03;100.00;96851.06;5028295;27;101694;-63
2023/04/04 04:08:40;;;;;;;4.10;3.10;;;;;;;-1.08;100.00;96848.16;5030086;27;105149;-63
2023/04/04 04:11:07;;;;;;;3.27;2.90;;;;;;;-1.02;100.00;96852.69;5028533;28;104068;-63
2023/04/04 04:14:23;;;;;;;8.13;3.73;;;;;;;-1.01;100.00;96856.94;5025978;28;101953;-63
2023/04/04 04:16:50;;;;;;;4.40;3.13;;;;;;;-1.04;100.00;96859.06;4995318;28;105547;-63
2023/04/04 04:19:21;;;;;;;4.03;3.40;;;;;;;-1.12;100.00;96862.50;5019312;28;105313;-63
2023/04/04 04:21:48;;;;;;;4.27;3.30;;;;;;;-1.16;100.00;96855.97;5031513;28;103365;-63
2023/04/04 04:24:16;;;;;;;6.13;3.60;;;;;;;-1.18;100.00;96857.13;5030328;28;105065;-63
2023/04/04 04:26:43;;;;;;;5.87;3.20;;;;;;;-1.23;100.00;96860.25;5031765;28;102022;-63
2023/04/04 04:29:13;;;;;;;3.60;3.00;;;;;;;-1.17;100.00;96858.75;5031914;28;101882;-63
2023/04/04 04:31:40;;;;;;;4.00;3.17;;;;;;;-1.08;100.00;96858.59;5015865;28;105268;-63
2023/04/04 04:34:26;;;;;;;4.10;3.70;;;;;;;-1.09;100.00;96867.38;5011515;28;101845;-63
2023/04/04 04:36:58;;;;;;;4.10;3.13;;;;;;;-1.09;100.00;96869.19;5011333;28;104964;-63
2023/04/04 04:39:28;;;;;;;4.80;3.00;;;;;;;-1.13;100.00;96866.09;5011754;28;106359;-63
2023/04/04 04:42:14;;;;;;;4.00;3.00;;;;;;;-1.11;100.00;96868.56;5013020;28;101756;-63
2023/04/04 04:48:58;;;;;;;3.47;2.93;;;;;;;-1.28;100.00;96872.13;4989624;28;101644;-63
2023/04/04 04:51:29;;;;;;;3.30;3.00;;;;;;;-1.27;100.00;96868.56;5011353;28;105192;-63
2023/04/04 04:57:47;;;;;;;5.37;3.33;;;;;;;-1.23;100.00;96886.34;5009623;28;101741;-63
2023/04/04 05:00:22;;;;;;;3.43;2.83;;;;;;;-1.33;100.00;96879.66;5011107;28;105193;-63
2023/04/04 05:02:50;;;;;;;5.43;3.27;;;;;;;-1.25;100.00;96883.09;5019672;28;104349;-63
2023/04/04 05:05:23;;;;;;;4.10;3.40;;;;;;;-1.17;100.00;96888.28;5031069;28;101812;-63
2023/04/04 05:07:53;;;;;;;4.43;2.90;;;;;;;-1.13;100.00;96888.75;5030792;28;102712;-63
2023/04/04 05:10:21;;;;;;;4.23;3.17;;;;;;;-0.99;100.00;96888.88;5033582;28;105363;-63
2023/04/04 05:12:50;;;;;;;3.23;2.47;;;;;;;-0.91;100.00;96886.28;5021533;28;105127;-63
2023/04/04 05:15:28;;;;;;;6.17;3.70;;;;;;;-0.86;100.00;96893.59;5010139;28;104187;-63
2023/04/04 05:17:55;;;;;;;5.43;3.70;;;;;;;-0.77;100.00;96897.81;5021786;28;101720;-63
2023/04/04 05:20:23;;;;;;;5.77;3.80;;;;;;;-0.75;100.00;96896.66;5022285;28;105663;-63
2023/04/04 05:22:50;;;;;;;4.60;3.27;;;;;;;-0.74;100.00;96894.84;5017724;28;105267;-63
2023/04/04 05:25:22;;;;;;;4.60;3.30;;;;;;;-0.66;100.00;96897.44;5017131;28;102128;-63
2023/04/04 05:27:50;;;;;;;4.80;3.60;;;;;;;-0.65;100.00;96902.50;5013679;28;105584;-63
2023/04/04 05:30:20;;;;;;;4.87;3.60;;;;;;;-0.64;100.00;96900.69;5030173;28;105229;-63
2023/04/04 05:33:57;;;;;;;8.60;3.80;;;;;;;-0.43;100.00;96905.19;5022679;27;101849;-63
2023/04/04 05:36:31;;;;;;;3.60;3.30;;;;;;;-0.22;100.00;96899.34;5009819;28;106083;-63
2023/04/04 05:39:04;;;;;;;5.30;2.87;;;;;;;-0.38;100.00;96896.84;5010653;28;101886;-63
2023/04/04 05:41:33;;;;;;;4.60;3.50;;;;;;;-0.42;100.00;96903.38;5026146;28;103728;-63
2023/04/04 05:44:42;;;;;;;4.40;3.00;;;;;;;-0.23;100.00;96905.56;5029959;28;105202;-63
2023/04/04 05:47:10;;;;;;;4.30;2.87;;;;;;;-0.18;100.00;96910.31;4998810;28;101758;-63
2023/04/04 05:49:40;;;;;;;4.70;3.77;;;;;;;-0.01;100.00;96910.03;5022151;28;105401;-63
2023/04/04 05:52:07;;;;;;;3.83;3.10;;;;;;;-0.05;100.00;96911.38;5009652;28;105431;-63
2023/04/04 05:54:36;;;;;;;3.50;3.03;;;;;;;0.03;100.00;96911.31;5013755;28;101884;-62
2023/04/04 05:57:12;;;;;;;4.13;2.93;;;;;;;0.12;100.00;96910.28;5022089;28;105050;-63
2023/04/04 05:59:46;;;;;;;4.30;3.00;;;;;;;0.15;100.00;96912.53;5013267;28;102047;-63
2023/04/04 06:02:16;;;;;;;4.73;3.03;;;;;;;0.38;100.00;96908.13;5043902;27;104839;-61
2023/04/04 06:05:12;;;;;;;7.60;3.70;;;;;;;0.63;100.00;96917.44;5009556;28;104429;-62
2023/04/04 06:07:39;;;;;;;4.67;2.97;;;;;;;0.63;100.00;96910.41;5009498;28;101968;-62
2023/04/04 06:10:09;;;;;;;4.37;2.87;;;;;;;0.66;100.00;96914.47;5043304;27;104930;-62
2023/04/04 06:12:36;;;;;;;4.93;3.27;;;;;;;0.71;100.00;96909.53;5009060;28;105082;-62
2023/04/04 06:15:10;;;;;;;3.63;2.93;;;;;;;0.76;100.00;96912.41;5009667;28;101759;-63
2023/04/04 06:17:38;;;;;;;6.93;3.40;;;;;;;0.89;100.00;96915.25;5042836;27;106143;-63
2023/04/04 06:20:07;;;;;;;6.27;2.93;;;;;;;0.96;100.00;96919.59;5011493;28;102007;-62
2023/04/04 06:22:35;;;;;;;3.77;2.90;;;;;;;0.88;100.00;96906.56;5009308;28;104747;-62
2023/04/04 06:25:09;;;;;;;5.53;2.80;;;;;;;0.88;100.00;96917.03;5008789;28;105040;-63
2023/04/04 06:27:37;;;;;;;5.47;3.23;;;;;;;1.03;100.00;96909.19;5009074;28;102214;-63
2023/04/04 06:30:10;;;;;;;4.77;3.00;;;;;;;1.15;100.00;96905.19;5009515;28;104812;-62
2023/04/04 06:32:38;;;;;;;3.57;2.73;;;;;;;1.24;100.00;96907.53;5008946;28;105293;-62
2023/04/04 06:35:08;;;;;;;5.33;3.10;;;;;;;1.37;100.00;96917.38;5020148;28;102012;-62
2023/04/04 06:37:42;;;;;;;3.73;3.10;;;;;;;1.42;100.00;96905.34;5018649;28;105105;-62
2023/04/04 06:40:14;;;;;;;2.97;2.70;;;;;;;1.66;100.00;96909.50;5022703;28;104911;-62
2023/04/04 06:42:49;;;;;;;4.60;3.00;;;;;;;1.54;100.00;96908.34;5015587;28;103758;-62
2023/04/04 06:45:19;;;;;;;5.37;3.03;;;;;;;1.81;100.00;96899.81;5008468;28;104025;-61
2023/04/04 06:47:46;;;;;;;4.47;3.10;;;;;;;1.86;100.00;96907.94;5008894;28;101905;-61
2023/04/04 06:50:14;;;;;;;3.83;2.90;;;;;;;1.92;100.00;96902.75;5012355;28;103722;-62
2023/04/04 06:52:43;;;;;;;3.20;2.90;;;;;;;1.88;100.00;96898.06;5008595;28;105386;-62
2023/04/04 06:55:10;;;;;;;3.40;3.00;;;;;;;1.78;100.00;96892.31;5008747;28;102021;-62
2023/04/04 06:57:38;;;;;;;5.23;3.03;;;;;;;2.00;100.00;96893.97;5008890;28;105041;-63
2023/04/04 07:00:06;;;;;;;3.43;2.53;;;;;;;1.94;100.00;96889.47;5008323;28;105098;-63
2023/04/04 07:02:35;;;;;;;2.60;2.40;;;;;;;2.05;100.00;96896.84;5012397;28;102297;-62
2023/04/04 07:08:49;;;;;;;3.97;2.43;;;;;;;2.40;100.00;96885.53;5007055;28;101722;-62
2023/04/04 07:11:16;;;;;;;3.53;3.07;;;;;;;2.58;100.00;96888.50;5008833;28;105079;-63
2023/04/04 07:14:06;;;;;;;3.27;2.80;;;;;;;2.43;100.00;96887.75;4988204;28;105085;-62
2023/04/04 07:16:35;;;;;;;4.53;3.10;;;;;;;2.62;100.00;96887.16;4988782;28;101744;-62
2023/04/04 07:19:03;;;;;;;3.23;2.80;;;;;;;2.73;100.00;96884.00;5008690;28;105266;-62
2023/04/04 07:21:31;;;;;;;3.57;2.77;;;;;;;2.67;100.00;96882.94;4987591;28;103847;-62
2023/04/04 07:24:09;;;;;;;4.53;2.90;;;;;;;2.86;100.00;96882.28;4989990;28;101939;-62
2023/04/04 07:26:36;;;;;;;4.43;2.70;;;;;;;2.89;100.00;96875.84;4995744;28;105513;-62
2023/04/04 07:29:03;;;;;;;3.77;2.93;;;;;;;2.84;100.00;96868.53;5008245;28;102057;-62
2023/04/04 07:31:29;;;;;;;4.03;2.87;;;;;;;2.90;100.00;96873.00;5008385;28;105296;-62
2023/04/04 07:34:12;;;;;;;3.90;2.80;;;;;;;3.15;100.00;96876.84;5007864;28;105681;-62
2023/04/04 07:36:40;;;;;;;4.63;3.10;;;;;;;3.24;100.00;96880.13;5008189;28;101972;-63
2023/04/04 07:39:06;;;;;;;4.33;3.20;;;;;;;2.87;100.00;96877.84;5016522;28;102362;-62
2023/04/04 07:41:34;;;;;;;6.87;3.03;;;;;;;2.95;100.00;96880.34;5028158;28;105430;-62
2023/04/04 07:47:48;;;;;;;4.13;2.87;;;;;;;2.91;100.00;96879.91;5020941;28;101979;-62
2023/04/04 07:50:16;;;;;;;4.37;3.20;;;;;;;3.31;100.00;96875.72;5015985;28;102540;-61
2023/04/04 07:52:50;;;;;;;3.50;2.83;;;;;;;3.48;100.00;96877.00;5004486;28;105189;-62
2023/04/04 07:55:17;;;;;;;3.87;2.93;;;;;;;3.71;100.00;96880.97;5011187;28;104041;-61
2023/04/04 07:57:44;;;;;;;6.17;2.90;;;;;;;4.10;96.86;96880.34;5011411;28;102020;-62
2023/04/04 08:00:12;;;;;;;5.10;3.07;;;;;;;4.23;85.31;96883.81;5019510;28;105187;-61
2023/04/04 08:02:43;;;;;;;3.60;2.70;;;;;;;4.07;81.55;96886.81;5031269;28;105381;-62
2023/04/04 08:05:10;;;;;;;3.83;2.70;;;;;;;4.08;78.21;96884.97;5015060;28;101963;-62
2023/04/04 08:07:38;;;;;;;4.70;2.90;;;;;;;4.01;77.77;96889.41;5011166;28;105644;-62
2023/04/04 08:10:07;;;;;;;5.27;2.63;;;;;;;4.33;79.41;96886.88;5022793;28;105248;-62
2023/04/04 08:12:34;;;;;;;3.30;2.50;;;;;;;4.21;74.48;96890.28;5035214;28;101954;-62
2023/04/04 08:15:26;;;;;;;3.43;2.73;;;;;;;3.70;67.66;96882.00;5022732;28;103798;-62
2023/04/04 08:17:54;;;;;;;3.20;2.60;;;;;;;3.85;65.82;96884.47;5011132;28;101891;-62
2023/04/04 08:20:21;;;;;;;4.67;2.63;;;;;;;3.87;59.35;96890.38;5044420;27;105302;-62
2023/04/04 08:23:18;;;;;;;3.17;2.50;;;;;;;3.84;63.70;96885.50;5025172;28;105094;-62
2023/04/04 08:25:46;;;;;;;3.30;2.47;;;;;;;3.86;66.13;96886.91;5031449;28;101860;-62
2023/04/04 08:28:14;;;;;;;3.80;2.63;;;;;;;4.00;71.61;96888.59;5019777;28;105055;-62
2023/04/04 08:30:42;;;;;;;2.80;2.60;;;;;;;3.48;59.38;96887.53;5044250;27;105238;-62
2023/04/04 08:33:54;;;;;;;3.17;2.80;;;;;;;3.52;58.94;96886.16;5014712;28;101988;-62
2023/04/04 08:36:22;;;;;;;2.47;2.27;;;;;;;3.60;59.75;96893.91;4990446;28;105479;-62
2023/04/04 08:38:50;;;;;;;3.23;2.37;;;;;;;3.96;60.30;96890.00;5006809;28;102070;-62
2023/04/04 08:41:17;;;;;;;3.73;2.50;;;;;;;3.90;60.87;96884.69;4992033;28;105073;-62
2023/04/04 08:47:36;;;;;;;2.60;2.40;;;;;;;4.87;59.80;96894.63;4993809;28;101703;-62
2023/04/04 08:50:04;;;;;;;3.63;2.43;;;;;;;5.44;57.06;96894.78;5011104;28;105135;-62
2023/04/04 08:52:33;;;;;;;5.70;2.40;;;;;;;5.48;55.46;96885.44;5009879;28;105245;-62
2023/04/04 08:58:25;;;;;;;2.60;2.40;;;;;;;4.80;57.36;96888.56;5013303;28;104820;-62
2023/04/04 09:00:53;;;;;;;2.77;2.47;;;;;;;5.50;57.00;96878.13;5027231;28;101895;-62
2023/04/04 09:06:43;;;;;;;4.00;2.80;;;;;;;6.63;53.71;96881.72;5030123;28;105420;-62
2023/04/04 09:09:13;;;;;;;2.40;2.20;;;;;;;6.55;49.58;96884.63;5015412;28;101866;-62
2023/04/04 09:11:40;;;;;;;2.73;2.53;;;;;;;6.42;48.52;96874.13;5030377;28;104731;-62
2023/04/04 09:17:32;;;;;;;4.23;2.60;;;;;;;6.87;47.63;96878.28;5026836;28;101963;-59
2023/04/04 09:20:02;;;;;;;2.90;2.20;;;;;;;7.20;48.41;96874.34;5010034;28;105344;-59
2023/04/04 09:22:31;;;;;;;2.00;1.90;;;;;;;7.19;44.86;96872.72;5012953;28;103967;-59
2023/04/04 09:25:22;;;;;;;2.73;2.17;;;;;;;7.06;43.80;96874.66;5010184;28;104010;-60
2023/04/04 09:27:49;;;;;;;3.27;2.20;;;;;;;7.20;43.96;96879.63;5009440;28;105066;-59
2023/04/04 09:30:16;;;;;;;4.80;2.73;;;;;;;7.31;42.58;96870.97;5010161;28;101962;-60
2023/04/04 09:32:45;;;;;;;3.03;2.20;;;;;;;7.67;44.83;96870.19;5010100;28;105776;-63
2023/04/04 09:35:14;;;;;;;4.60;2.63;;;;;;;7.70;42.14;96870.56;5008547;28;104233;-58
2023/04/04 09:37:42;;;;;;;2.50;2.27;;;;;;;7.62;45.50;96867.41;5009959;28;102127;-58
2023/04/04 09:40:10;;;;;;;2.00;1.80;;;;;;;7.68;43.81;96872.63;5009535;28;105115;-58
2023/04/04 09:42:37;;;;;;;2.30;2.10;;;;;;;7.58;44.83;96867.03;5009473;28;103730;-58
2023/04/04 09:45:08;;;;;;;2.80;2.20;;;;;;;7.14;43.55;96869.91;5013624;28;101889;-58
2023/04/04 09:47:41;;;;;;;2.87;2.20;;;;;;;7.19;45.02;96878.00;5009133;28;105002;-58
2023/04/04 09:50:21;;;;;;;3.03;2.30;;;;;;;7.55;43.00;96877.25;5011456;28;101917;-59
2023/04/04 09:53:18;;;;;;;2.57;2.37;;;;;;;7.56;43.55;96879.69;5009841;28;104837;-58
2023/04/04 09:55:50;;;;;;;3.37;2.40;;;;;;;6.77;44.24;96877.97;5015291;28;105115;-58
2023/04/04 09:58:20;;;;;;;3.40;2.33;;;;;;;6.51;43.99;96883.41;5020870;28;101802;-58
2023/04/04 10:00:47;;;;;;;3.80;2.20;;;;;;;6.39;44.80;96882.47;5009637;28;104321;-59
2023/04/04 10:03:22;;;;;;;3.80;2.30;;;;;;;6.44;44.97;96878.16;5008400;28;106058;-58
2023/04/04 10:05:58;;;;;;;2.50;2.27;;;;;;;6.29;44.52;96879.47;5014189;28;102115;-59
2023/04/04 10:08:29;;;;;;;2.60;2.10;;;;;;;5.88;43.82;96871.13;5067121;27;107031;-63
2023/04/04 10:10:58;;;;;;;2.63;2.23;;;;;;;6.60;45.60;96882.16;5030226;28;102046;-59
2023/04/04 10:13:26;;;;;;;2.63;2.30;;;;;;;6.68;43.85;96873.94;5029971;28;105237;-61
2023/04/04 10:15:54;;;;;;;3.13;2.00;;;;;;;6.40;41.49;96873.53;5029216;28;105258;-61
2023/04/04 10:18:24;;;;;;;2.10;2.00;;;;;;;6.51;41.71;96876.31;5029891;28;101865;-61
2023/04/04 10:20:52;;;;;;;3.67;2.13;;;;;;;6.40;45.68;96879.63;5029375;28;105127;-62
2023/04/04 10:23:27;;;;;;;2.33;2.10;;;;;;;6.58;43.71;96870.97;5021430;28;105313;-62
2023/04/04 10:25:54;;;;;;;2.60;2.40;;;;;;;5.83;43.98;96876.25;5009923;28;101899;-62
2023/04/04 10:28:21;;;;;;;3.17;2.30;;;;;;;5.78;43.78;96878.69;5014636;28;104902;-62
2023/04/04 10:30:53;;;;;;;3.40;2.30;;;;;;;5.95;45.04;96878.00;5032717;28;104203;-62
2023/04/04 10:33:36;;;;;;;2.50;2.30;;;;;;;6.52;42.56;96863.91;5024038;28;104773;-62
2023/04/04 10:36:06;;;;;;;3.97;2.53;;;;;;;5.64;40.89;96871.81;5023440;28;105542;-62
2023/04/04 10:38:40;;;;;;;2.53;2.23;;;;;;;6.72;43.33;96869.88;5012142;28;101874;-62
2023/04/04 10:41:08;;;;;;;2.50;2.30;;;;;;;7.11;46.48;96865.06;5018003;28;105410;-62
2023/04/04 10:43:50;;;;;;;2.67;2.40;;;;;;;7.96;43.00;96870.28;5028362;28;105797;-62
2023/04/04 10:46:21;;;;;;;2.37;2.13;;;;;;;6.84;42.40;96865.50;5024679;28;103116;-62
2023/04/04 10:48:49;;;;;;;2.43;2.20;;;;;;;7.25;42.04;96869.19;5029177;28;105064;-63
2023/04/04 10:51:16;;;;;;;2.23;2.03;;;;;;;7.65;42.05;96874.91;5032423;28;105294;-62
2023/04/04 10:54:11;;;;;;;2.33;2.07;;;;;;;7.36;42.98;96870.34;5018204;28;105701;-62
2023/04/04 10:56:38;;;;;;;3.07;2.23;;;;;;;8.14;41.24;96869.44;5008683;28;105290;-64
2023/04/04 10:59:10;;;;;;;4.37;2.27;;;;;;;8.10;41.65;96865.63;5012661;28;102003;-62
2023/04/04 11:01:49;;;;;;;2.40;2.20;;;;;;;8.26;40.05;96865.84;5009069;28;105458;-63
2023/04/04 11:04:47;;;;;;;3.03;2.40;;;;;;;7.96;41.64;96862.31;5011101;28;105563;-62
2023/04/04 11:07:16;;;;;;;2.30;2.07;;;;;;;8.68;41.04;96874.66;5019083;28;101842;-61
2023/04/04 11:09:52;;;;;;;2.73;2.30;;;;;;;8.91;40.61;96861.44;5009155;28;105905;-62
2023/04/04 11:12:30;;;;;;;2.50;2.30;;;;;;;8.40;40.61;96866.50;5009406;28;105701;-61
2023/04/04 11:15:09;;;;;;;2.70;2.20;;;;;;;9.17;40.08;96858.34;5032593;28;101700;-62
2023/04/04 11:17:44;;;;;;;3.00;2.40;;;;;;;9.13;39.73;96855.34;4989155;28;105329;-62
2023/04/04 11:20:15;;;;;;;2.57;2.07;;;;;;;8.90;42.90;96854.50;4992023;28;102143;-61
2023/04/04 11:22:42;;;;;;;2.83;2.40;;;;;;;9.39;41.52;96857.53;4994072;28;103037;-61
2023/04/04 11:25:37;;;;;;;3.90;2.50;;;;;;;9.86;39.87;96853.00;4993114;28;102443;-61
2023/04/04 11:28:06;;;;;;;4.37;2.23;;;;;;;8.85;39.86;96854.38;5004050;28;103399;-62
2023/04/04 11:30:42;;;;;;;3.63;2.73;;;;;;;8.48;41.17;96847.59;5013618;28;102902;-61
2023/04/04 11:33:29;;;;;;;2.57;2.37;;;;;;;8.30;41.70;96855.63;5013254;28;104008;-61
2023/04/04 11:36:04;;;;;;;2.50;2.27;;;;;;;8.51;40.40;96855.13;5022913;28;102496;-62
2023/04/04 11:38:32;;;;;;;2.90;2.60;;;;;;;7.01;38.62;96837.50;5021775;28;105058;-61
2023/04/04 11:41:01;;;;;;;2.70;2.50;;;;;;;6.53;40.07;96841.72;5012340;28;101833;-64
2023/04/04 11:43:33;;;;;;;2.83;2.40;;;;;;;7.74;43.12;96845.28;5012442;28;105806;-62
2023/04/04 11:46:07;;;;;;;3.00;2.40;;;;;;;8.16;40.80;96838.22;5011686;28;105235;-62
2023/04/04 11:48:34;;;;;;;3.47;2.43;;;;;;;8.69;38.35;96839.97;5025468;28;101811;-62
2023/04/04 11:51:03;;;;;;;3.20;2.30;;;;;;;9.24;38.90;96851.09;5032229;28;105209;-62
2023/04/04 11:53:43;;;;;;;2.97;2.50;;;;;;;8.94;36.83;96834.47;5021615;28;105217;-62
2023/04/04 11:56:15;;;;;;;3.37;2.70;;;;;;;9.44;39.71;96839.06;5030158;28;101780;-61
2023/04/04 11:58:47;;;;;;;2.87;2.33;;;;;;;9.95;40.01;96831.16;5022983;28;105418;-61
2023/04/04 12:01:14;;;;;;;3.33;2.70;;;;;;;9.85;39.00;96832.78;5024038;28;106132;-62
2023/04/04 12:03:51;;;;;;;3.47;2.43;;;;;;;9.96;37.92;96834.59;5015977;28;105351;-62
2023/04/04 12:06:18;;;;;;;2.60;2.37;;;;;;;10.32;38.28;96823.66;5010963;28;103980;-62
2023/04/04 12:08:45;;;;;;;3.33;2.33;;;;;;;10.19;37.38;96827.38;5012301;28;101919;-63
2023/04/04 12:11:17;;;;;;;4.60;2.70;;;;;;;9.33;37.39;96831.13;5030346;28;105279;-62
2023/04/04 12:13:51;;;;;;;5.13;2.57;;;;;;;8.97;37.64;96831.34;5024356;28;104244;-61
2023/04/04 12:16:18;;;;;;;2.50;2.30;;;;;;;9.65;37.50;96827.06;5011491;28;101861;-60
2023/04/04 12:18:46;;;;;;;2.33;2.20;;;;;;;9.20;35.35;96820.72;5012804;28;102494;-62
2023/04/04 12:21:12;;;;;;;4.03;2.53;;;;;;;9.62;38.25;96820.38;5010299;28;104944;-61
2023/04/04 12:23:41;;;;;;;3.10;2.30;;;;;;;9.43;37.36;96815.44;5016311;28;101776;-69